Time;durP1;ratioP1;P1;durP2;ratioP2;P2;SDS_P1;SDS_P2;PMS_P1;PMS_P2;Temp;Humidity;BMP_temperature;BMP_pressure;BME280_temperature;BME280_humidity;BME280_pressure;Samples;Min_cycle;Max_cycle;Signal;HPM_P1;HPM_P2
2022/03/25 00:01:26;;;;;;;16.58;7.55;;;;;;;11.65;30.47;100059.25;5103800;28;20036;-79
2022/03/25 00:03:52;;;;;;;13.27;7.30;;;;;;;11.70;30.68;100060.41;5104103;28;20039;-79
2022/03/25 00:06:18;;;;;;;21.85;7.43;;;;;;;11.73;30.42;100057.44;5104003;28;20032;-79
2022/03/25 00:08:43;;;;;;;22.52;8.93;;;;;;;11.60;31.00;100049.13;5093980;28;20040;-79
2022/03/25 00:11:08;;;;;;;22.73;9.98;;;;;;;11.65;30.27;100048.63;5087781;28;20048;-79
2022/03/25 00:13:34;;;;;;;22.42;7.97;;;;;;;11.54;30.90;100052.41;5086179;28;20337;-79
2022/03/25 00:15:59;;;;;;;19.77;10.18;;;;;;;11.56;30.78;100061.03;5087728;28;20024;-79
2022/03/25 00:18:25;;;;;;;23.27;9.38;;;;;;;11.66;30.35;100053.78;5089153;28;20222;-79
2022/03/25 00:20:52;;;;;;;16.95;7.95;;;;;;;11.57;30.24;100052.09;5086755;28;20029;-80
2022/03/25 00:23:17;;;;;;;13.85;7.72;;;;;;;11.70;29.88;100049.81;5084355;28;20040;-79
2022/03/25 00:25:43;;;;;;;17.63;7.75;;;;;;;11.74;29.49;100050.31;5083178;28;20090;-80
2022/03/25 00:28:08;;;;;;;22.90;8.40;;;;;;;11.94;29.24;100045.56;5087804;28;20031;-78
2022/03/25 00:30:34;;;;;;;18.48;7.97;;;;;;;12.00;29.00;100044.91;5081906;28;20028;-78
2022/03/25 00:32:59;;;;;;;18.45;7.15;;;;;;;12.01;29.09;100049.25;5081943;28;20085;-79
2022/03/25 00:35:26;;;;;;;22.70;7.85;;;;;;;12.07;28.83;100038.78;5086633;28;20233;-79
2022/03/25 00:37:52;;;;;;;19.45;7.60;;;;;;;12.08;29.01;100042.28;5083740;28;20081;-79
2022/03/25 00:40:17;;;;;;;17.42;8.40;;;;;;;12.40;28.27;100047.59;5084455;28;20091;-79
2022/03/25 00:42:43;;;;;;;18.48;8.93;;;;;;;12.31;28.60;100055.72;5087300;28;20087;-80
2022/03/25 00:45:08;;;;;;;17.20;7.93;;;;;;;12.30;28.89;100051.41;5086283;28;20318;-79
2022/03/25 00:47:36;;;;;;;24.67;8.27;;;;;;;12.28;28.74;100046.28;5090409;28;20131;-80
2022/03/25 00:50:02;;;;;;;18.00;8.15;;;;;;;12.36;28.92;100050.75;5087996;28;20537;-79
2022/03/25 00:52:28;;;;;;;19.08;8.10;;;;;;;12.40;28.60;100054.72;5086510;28;20027;-80
2022/03/25 00:54:54;;;;;;;21.85;8.50;;;;;;;12.23;28.67;100026.53;5085876;28;20029;-79
2022/03/25 00:57:19;;;;;;;22.17;8.80;;;;;;;12.34;29.25;100032.34;5086056;28;20040;-79
2022/03/25 00:59:45;;;;;;;15.52;8.10;;;;;;;12.41;28.87;100046.59;5089876;28;20195;-79
2022/03/25 01:02:11;;;;;;;14.13;8.23;;;;;;;12.32;29.26;100046.78;5085996;28;20059;-80
2022/03/25 01:04:37;;;;;;;20.30;8.20;;;;;;;12.28;28.43;100050.75;5085608;28;20024;-79
2022/03/25 01:07:03;;;;;;;19.15;7.90;;;;;;;12.14;28.90;100037.13;5083070;28;20040;-79
2022/03/25 01:09:29;;;;;;;17.08;8.25;;;;;;;12.04;28.73;99994.00;5083638;28;20044;-79
2022/03/25 01:11:54;;;;;;;23.25;8.48;;;;;;;12.49;28.45;100040.50;5087633;28;20277;-80
2022/03/25 01:14:21;;;;;;;17.23;8.15;;;;;;;12.48;28.38;100041.47;5086754;28;20036;-79
2022/03/25 01:16:46;;;;;;;15.80;7.65;;;;;;;12.32;28.36;100036.16;5082856;28;20333;-79
2022/03/25 01:19:12;;;;;;;15.25;7.50;;;;;;;12.29;28.77;100033.81;5086124;28;20036;-79
2022/03/25 01:21:38;;;;;;;22.20;8.38;;;;;;;12.04;29.22;100012.59;5081670;28;20024;-80
2022/03/25 01:24:04;;;;;;;16.50;8.20;;;;;;;12.21;28.70;100042.63;5084683;28;20044;-80
2022/03/25 01:26:30;;;;;;;19.05;8.52;;;;;;;12.49;29.17;100034.34;5086824;28;20036;-80
2022/03/25 01:28:56;;;;;;;21.08;8.05;;;;;;;12.25;29.45;100027.19;5084948;28;20102;-79
2022/03/25 01:31:22;;;;;;;19.45;8.45;;;;;;;12.15;29.55;100028.19;5083755;28;20324;-80
2022/03/25 01:33:47;;;;;;;19.33;8.05;;;;;;;12.25;29.57;100028.03;5085672;28;20330;-79
2022/03/25 01:36:13;;;;;;;18.40;7.78;;;;;;;12.13;29.45;100018.72;5082146;28;20039;-80
2022/03/25 01:38:39;;;;;;;19.23;8.38;;;;;;;12.05;30.39;100027.50;5086855;28;20239;-79
2022/03/25 01:41:06;;;;;;;18.38;7.68;;;;;;;11.90;30.43;100031.81;5086506;28;20033;-80
2022/03/25 01:43:31;;;;;;;18.98;7.82;;;;;;;11.82;30.14;100037.94;5085630;28;20040;-79
2022/03/25 01:45:57;;;;;;;17.25;7.78;;;;;;;11.64;30.76;100015.97;5090330;28;20234;-80
2022/03/25 01:48:23;;;;;;;17.52;8.88;;;;;;;11.47;30.86;100004.50;5083428;28;20394;-80
2022/03/25 01:50:49;;;;;;;15.63;7.72;;;;;;;11.65;31.31;100041.50;5087189;28;20186;-80
2022/03/25 01:53:17;;;;;;;13.93;7.40;;;;;;;11.57;31.41;100045.97;5093752;28;20276;-80
2022/03/25 01:55:57;;;;;;;23.30;9.05;;;;;;;11.36;31.64;100038.38;5099967;28;20419;-80
2022/03/25 01:58:25;;;;;;;19.30;9.13;;;;;;;11.27;31.76;100039.34;5088800;28;20337;-78
2022/03/25 02:00:51;;;;;;;17.77;9.05;;;;;;;11.20;32.67;100055.06;5084053;28;20322;-80
2022/03/25 02:03:17;;;;;;;21.17;9.85;;;;;;;11.19;32.30;100054.22;5086238;28;20036;-79
2022/03/25 02:05:44;;;;;;;20.13;8.50;;;;;;;11.14;32.47;100053.88;5083492;28;20202;-79
2022/03/25 02:08:10;;;;;;;18.95;9.02;;;;;;;11.08;32.44;100057.16;5084348;28;20047;-78
2022/03/25 02:10:36;;;;;;;20.30;8.88;;;;;;;10.80;32.85;100040.59;5088571;28;20211;-79
2022/03/25 02:13:02;;;;;;;22.50;9.00;;;;;;;10.97;33.02;100067.19;5084774;28;20084;-78
2022/03/25 02:15:43;;;;;;;18.95;7.93;;;;;;;10.83;33.24;100052.69;5082324;28;20065;-79
2022/03/25 02:18:12;;;;;;;21.30;8.50;;;;;;;10.77;33.27;100061.28;5097354;28;20178;-78
2022/03/25 02:20:39;;;;;;;21.02;8.65;;;;;;;11.04;33.26;100066.41;5085837;28;20322;-80
2022/03/25 02:23:06;;;;;;;23.67;8.68;;;;;;;10.77;33.52;100061.28;5089762;28;20033;-80
2022/03/25 02:25:32;;;;;;;20.13;8.90;;;;;;;10.74;32.82;100062.41;5092466;28;20314;-78
2022/03/25 02:28:03;;;;;;;23.20;8.65;;;;;;;10.23;33.43;100012.84;5099732;28;20020;-78
2022/03/25 02:30:29;;;;;;;20.45;8.25;;;;;;;10.53;33.22;100067.22;5088720;28;20232;-78
2022/03/25 02:33:01;;;;;;;16.25;8.38;;;;;;;10.60;33.39;100062.16;5089527;28;20020;-79
2022/03/25 02:35:45;;;;;;;24.83;8.95;;;;;;;10.59;33.32;100074.56;5082592;28;20040;-79
2022/03/25 02:38:13;;;;;;;17.63;8.37;;;;;;;10.50;33.13;100070.19;5088182;28;20067;-79
2022/03/25 02:40:39;;;;;;;25.98;12.35;;;;;;;10.72;32.77;100072.34;5088551;28;20252;-80
2022/03/25 02:43:05;;;;;;;32.35;13.05;;;;;;;10.80;32.79;100085.63;5087448;28;20036;-80
2022/03/25 02:45:31;;;;;;;16.17;8.43;;;;;;;10.52;33.30;100058.44;5088632;28;20044;-80
2022/03/25 02:47:57;;;;;;;22.55;9.43;;;;;;;10.92;32.65;100078.25;5088545;28;20252;-79
2022/03/25 02:50:22;;;;;;;16.13;8.52;;;;;;;10.75;32.92;100076.50;5086875;28;20036;-80
2022/03/25 02:52:49;;;;;;;24.60;8.98;;;;;;;10.76;32.65;100078.97;5085662;28;20083;-78
2022/03/25 02:55:14;;;;;;;24.58;9.13;;;;;;;10.79;32.72;100075.19;5081376;28;20082;-79
2022/03/25 02:57:40;;;;;;;18.38;8.63;;;;;;;10.89;32.50;100081.22;5088322;28;20040;-80
2022/03/25 03:00:08;;;;;;;17.67;8.52;;;;;;;10.91;33.27;100083.72;5084576;28;20032;-79
2022/03/25 03:02:35;;;;;;;25.30;8.98;;;;;;;10.77;33.11;100080.66;5085846;28;20064;-79
2022/03/25 03:05:01;;;;;;;22.35;8.80;;;;;;;10.52;33.23;100065.56;5091782;28;20377;-79
2022/03/25 03:07:26;;;;;;;19.35;9.23;;;;;;;10.46;32.92;100045.84;5092387;28;20032;-79
2022/03/25 03:09:52;;;;;;;22.50;8.50;;;;;;;10.60;33.02;100068.28;5085292;28;20035;-79
2022/03/25 03:12:17;;;;;;;21.27;9.27;;;;;;;10.55;33.15;100046.72;5083728;28;20039;-79
2022/03/25 03:14:42;;;;;;;25.45;9.57;;;;;;;10.89;33.07;100083.88;5086679;28;20039;-79
2022/03/25 03:17:10;;;;;;;29.63;12.40;;;;;;;10.64;33.17;100071.44;5089634;28;20037;-79
2022/03/25 03:19:36;;;;;;;29.02;10.48;;;;;;;10.36;33.46;100042.41;5087557;28;20047;-79
2022/03/25 03:22:01;;;;;;;26.60;10.13;;;;;;;10.58;33.74;100074.72;5088605;28;20091;-79
2022/03/25 03:24:27;;;;;;;25.85;9.88;;;;;;;10.73;33.24;100086.41;5082278;28;20037;-80
2022/03/25 03:26:52;;;;;;;25.75;9.45;;;;;;;10.64;33.51;100074.09;5084072;28;20066;-79
2022/03/25 03:29:18;;;;;;;25.27;8.32;;;;;;;10.55;33.79;100071.38;5086975;28;20051;-80
2022/03/25 03:31:44;;;;;;;22.25;9.20;;;;;;;10.44;34.11;100036.38;5090999;28;20035;-80
2022/03/25 03:34:09;;;;;;;23.00;9.68;;;;;;;10.59;33.99;100055.19;5090152;28;20028;-79
2022/03/25 03:36:35;;;;;;;21.20;9.02;;;;;;;10.75;33.47;100045.53;5090072;28;20040;-79
2022/03/25 03:39:00;;;;;;;24.40;10.15;;;;;;;11.09;32.68;100055.34;5086852;28;20123;-80
2022/03/25 03:41:27;;;;;;;24.00;8.88;;;;;;;10.81;33.29;100068.75;5084734;28;20262;-80
2022/03/25 03:43:52;;;;;;;22.90;8.80;;;;;;;10.83;32.92;100066.78;5087683;28;20031;-80
2022/03/25 03:46:18;;;;;;;25.92;8.70;;;;;;;10.74;33.10;100064.22;5090055;28;20036;-79
2022/03/25 03:48:44;;;;;;;18.70;8.88;;;;;;;10.50;33.37;100065.72;5088596;28;20032;-81
2022/03/25 03:51:10;;;;;;;16.90;8.45;;;;;;;10.59;33.25;100063.13;5086244;28;20059;-80
2022/03/25 03:53:35;;;;;;;20.80;8.70;;;;;;;10.78;32.87;100061.13;5087353;28;20032;-80
2022/03/25 03:56:01;;;;;;;21.88;9.68;;;;;;;10.77;33.05;100043.56;5090187;28;20043;-79
2022/03/25 03:58:26;;;;;;;24.60;8.85;;;;;;;10.79;33.29;100069.91;5091887;28;21278;-79
2022/03/25 04:00:52;;;;;;;24.75;9.40;;;;;;;10.54;33.20;100060.94;5088637;28;20036;-79
2022/03/25 04:03:17;;;;;;;18.35;8.02;;;;;;;10.49;33.69;100057.94;5119347;27;20111;-79
2022/03/25 04:05:44;;;;;;;23.23;8.90;;;;;;;10.40;33.76;100072.06;5095787;28;20353;-79
2022/03/25 04:08:10;;;;;;;24.27;8.30;;;;;;;10.43;33.43;100066.47;5103066;28;20059;-79
2022/03/25 04:10:35;;;;;;;19.92;8.07;;;;;;;10.18;34.32;100070.66;5092729;28;20039;-80
2022/03/25 04:13:00;;;;;;;21.88;8.05;;;;;;;10.07;34.40;100036.50;5082361;28;20021;-80
2022/03/25 04:15:27;;;;;;;17.90;7.53;;;;;;;10.36;33.32;100058.28;5081640;28;20419;-79
2022/03/25 04:17:52;;;;;;;22.42;8.18;;;;;;;10.24;33.61;100064.81;5088250;28;20229;-81
2022/03/25 04:20:18;;;;;;;18.50;7.78;;;;;;;10.22;34.10;100064.97;5088732;28;20066;-80
2022/03/25 04:22:45;;;;;;;20.90;8.32;;;;;;;10.25;34.23;100061.19;5087457;28;20052;-79
2022/03/25 04:25:11;;;;;;;19.77;8.15;;;;;;;10.40;34.15;100072.91;5087217;28;20027;-80
2022/03/25 04:27:49;;;;;;;17.27;8.73;;;;;;;10.37;34.30;100073.19;5083023;28;20036;-79
2022/03/25 04:30:18;;;;;;;24.05;10.63;;;;;;;10.29;34.41;100067.81;5083252;28;20031;-80
2022/03/25 04:32:43;;;;;;;23.83;9.30;;;;;;;10.35;34.14;100072.50;5087603;28;20063;-79
2022/03/25 04:35:09;;;;;;;15.93;8.45;;;;;;;10.17;34.87;100063.72;5087513;28;20095;-79
2022/03/25 04:37:35;;;;;;;24.15;8.75;;;;;;;10.27;34.96;100071.59;5089616;28;20052;-79
2022/03/25 04:40:01;;;;;;;22.75;8.35;;;;;;;10.24;34.66;100092.09;5086024;28;20187;-81
2022/03/25 04:42:26;;;;;;;17.75;8.38;;;;;;;9.94;35.08;100039.53;5086205;28;20342;-81
2022/03/25 04:44:53;;;;;;;19.00;8.65;;;;;;;10.17;35.08;100061.06;5087035;28;20059;-79
2022/03/25 04:47:18;;;;;;;22.35;9.50;;;;;;;10.37;35.26;100091.72;5085647;28;20029;-79
2022/03/25 04:49:43;;;;;;;19.90;8.38;;;;;;;10.14;35.37;100083.38;5092669;28;20040;-78
2022/03/25 04:52:10;;;;;;;22.85;8.98;;;;;;;10.23;35.41;100102.84;5087534;28;20082;-81
2022/03/25 04:54:36;;;;;;;19.80;8.57;;;;;;;10.40;35.20;100096.75;5081846;28;20044;-81
2022/03/25 04:57:03;;;;;;;20.77;9.18;;;;;;;10.43;34.84;100083.19;5082273;28;20095;-79
2022/03/25 04:59:28;;;;;;;17.60;9.02;;;;;;;10.46;34.58;100071.47;5086149;28;20222;-80
2022/03/25 05:01:54;;;;;;;28.52;9.80;;;;;;;10.72;34.93;100109.41;5087402;28;20040;-79
2022/03/25 05:04:20;;;;;;;21.23;10.60;;;;;;;10.50;35.05;100094.00;5086525;28;20064;-79
2022/03/25 05:06:46;;;;;;;21.92;9.55;;;;;;;10.59;35.11;100071.91;5084547;28;20024;-80
2022/03/25 05:09:12;;;;;;;32.53;9.95;;;;;;;11.15;34.75;100108.53;5085324;28;20040;-80
2022/03/25 05:11:37;;;;;;;28.10;9.98;;;;;;;11.16;34.16;100101.41;5089515;28;20122;-79
2022/03/25 05:14:03;;;;;;;19.60;9.70;;;;;;;11.55;34.11;100112.41;5083058;28;20097;-78
2022/03/25 05:16:29;;;;;;;28.27;9.45;;;;;;;11.68;33.60;100118.09;5085946;28;20242;-79
2022/03/25 05:18:55;;;;;;;22.13;10.82;;;;;;;11.66;33.62;100117.44;5088069;28;20086;-79
2022/03/25 05:21:20;;;;;;;18.08;9.95;;;;;;;11.05;37.13;100134.31;5084075;28;20081;-79
2022/03/25 05:23:46;;;;;;;25.88;10.55;;;;;;;10.13;39.13;100141.75;5086023;28;20322;-81
2022/03/25 05:26:11;;;;;;;26.05;10.25;;;;;;;9.67;39.72;100140.06;5085277;28;20036;-81
2022/03/25 05:28:37;;;;;;;24.48;10.55;;;;;;;9.56;38.30;100117.28;5084858;28;20055;-83
2022/03/25 05:31:03;;;;;;;20.77;10.68;;;;;;;10.09;38.18;100135.91;5085162;28;20242;-82
2022/03/25 05:33:28;;;;;;;19.52;9.75;;;;;;;10.33;38.41;100140.66;5089064;28;20032;-79
2022/03/25 05:35:54;;;;;;;22.58;10.45;;;;;;;10.83;38.21;100133.00;5085814;28;20050;-79
2022/03/25 05:38:19;;;;;;;27.13;11.07;;;;;;;10.93;36.95;100117.00;5082451;28;20040;-80
2022/03/25 05:40:45;;;;;;;29.23;11.07;;;;;;;11.27;37.06;100148.03;5079967;28;20209;-79
2022/03/25 05:43:10;;;;;;;24.85;9.85;;;;;;;11.19;36.79;100135.56;5083123;28;20035;-79
2022/03/25 05:45:36;;;;;;;25.20;11.20;;;;;;;11.33;36.27;100150.06;5086763;28;20366;-79
2022/03/25 05:48:02;;;;;;;22.25;10.63;;;;;;;11.61;36.99;100153.38;5086425;28;20020;-80
2022/03/25 05:50:28;;;;;;;22.88;10.32;;;;;;;11.79;36.71;100135.59;5084918;28;20227;-80
2022/03/25 05:52:53;;;;;;;27.80;10.80;;;;;;;11.86;35.28;100131.31;5093875;28;20761;-80
2022/03/25 05:55:19;;;;;;;24.13;10.70;;;;;;;12.05;35.22;100146.94;5079747;28;20123;-80
2022/03/25 05:57:45;;;;;;;25.55;10.02;;;;;;;12.12;33.58;100131.22;5079924;28;20028;-80
2022/03/25 06:00:13;;;;;;;20.00;10.98;;;;;;;12.35;33.94;100128.75;5083406;28;20036;-79
2022/03/25 06:02:40;;;;;;;21.13;10.25;;;;;;;12.78;33.50;100147.06;5090080;28;20027;-80
2022/03/25 06:05:06;;;;;;;23.02;10.25;;;;;;;13.03;32.73;100139.91;5084068;28;20050;-81
2022/03/25 06:07:39;;;;;;;20.70;9.70;;;;;;;13.39;33.02;100153.66;5084351;28;20032;-79
2022/03/25 06:10:09;;;;;;;25.20;10.65;;;;;;;13.55;33.49;100150.16;5081149;28;20032;-80
2022/03/25 06:12:35;;;;;;;29.92;10.82;;;;;;;13.96;31.47;100152.66;5084040;28;20024;-79
2022/03/25 06:15:00;;;;;;;20.77;10.45;;;;;;;14.15;28.92;100152.22;5081638;28;20056;-79
2022/03/25 06:17:26;;;;;;;20.50;10.23;;;;;;;14.59;28.53;100147.16;5086349;28;20310;-80
2022/03/25 06:19:52;;;;;;;24.98;10.00;;;;;;;14.77;28.77;100170.03;5084647;28;20082;-80
2022/03/25 06:22:18;;;;;;;25.25;10.57;;;;;;;14.83;29.85;100170.13;5090411;28;20040;-79
2022/03/25 06:24:44;;;;;;;26.27;9.88;;;;;;;14.75;29.42;100161.38;5086796;28;20086;-79
2022/03/25 06:27:10;;;;;;;21.52;10.07;;;;;;;14.34;30.06;100150.94;5083561;28;20036;-78
2022/03/25 06:29:37;;;;;;;20.02;10.05;;;;;;;14.65;28.68;100161.63;5087186;28;20253;-79
2022/03/25 06:32:05;;;;;;;18.02;10.00;;;;;;;15.07;28.20;100161.09;5096725;28;20040;-79
2022/03/25 06:34:31;;;;;;;21.40;9.27;;;;;;;15.04;28.18;100164.13;5090943;28;20044;-80
2022/03/25 06:36:56;;;;;;;17.95;9.40;;;;;;;15.05;28.51;100163.09;5084602;28;20051;-80
2022/03/25 06:39:22;;;;;;;22.13;10.40;;;;;;;15.34;27.43;100163.16;5088705;28;20063;-81
2022/03/25 06:41:47;;;;;;;49.35;11.25;;;;;;;15.63;26.84;100162.41;5094217;28;20028;-79
2022/03/25 06:44:13;;;;;;;24.88;10.75;;;;;;;16.37;25.50;100166.78;5087755;28;20047;-82
2022/03/25 06:46:39;;;;;;;21.00;9.35;;;;;;;16.45;25.42;100164.81;5089811;28;20097;-80
2022/03/25 06:49:05;;;;;;;22.17;9.30;;;;;;;16.69;24.26;100162.84;5089638;28;20103;-79
2022/03/25 06:51:31;;;;;;;20.33;9.40;;;;;;;16.89;25.41;100153.16;5085726;28;20294;-79
2022/03/25 06:53:57;;;;;;;27.60;9.77;;;;;;;16.84;26.15;100156.41;5083932;28;20029;-79
2022/03/25 06:56:23;;;;;;;24.77;10.15;;;;;;;16.95;26.56;100164.94;5083519;28;20024;-79
2022/03/25 06:58:49;;;;;;;23.63;10.70;;;;;;;16.80;25.78;100149.78;5087726;28;20097;-79
2022/03/25 07:01:16;;;;;;;14.70;9.43;;;;;;;16.59;24.95;100134.53;5091025;28;20349;-80
2022/03/25 07:03:42;;;;;;;20.23;9.07;;;;;;;17.14;24.29;100140.19;5084540;28;20024;-79
2022/03/25 07:06:09;;;;;;;24.00;9.32;;;;;;;17.28;24.62;100133.06;5083753;28;20055;-79
2022/03/25 07:08:35;;;;;;;19.90;9.13;;;;;;;17.59;24.68;100160.25;5083683;28;20120;-79
2022/03/25 07:11:02;;;;;;;25.27;10.10;;;;;;;17.11;24.96;100157.44;5090371;28;20288;-79
2022/03/25 07:13:28;;;;;;;20.10;10.20;;;;;;;17.43;24.57;100169.41;5085928;28;20264;-78
2022/03/25 07:15:54;;;;;;;23.50;10.82;;;;;;;17.58;24.51;100129.13;5090760;28;20043;-78
2022/03/25 07:18:20;;;;;;;23.13;10.50;;;;;;;17.64;24.03;100163.16;5094411;28;20039;-80
2022/03/25 07:20:45;;;;;;;20.95;9.98;;;;;;;18.17;23.89;100158.91;5096070;28;20032;-78
2022/03/25 07:23:11;;;;;;;24.75;10.52;;;;;;;18.73;22.79;100158.69;5098368;28;20040;-80
2022/03/25 07:25:37;;;;;;;18.98;10.73;;;;;;;18.61;23.04;100121.88;5102533;28;20340;-79
2022/03/25 07:28:03;;;;;;;22.98;10.23;;;;;;;18.81;22.22;100160.34;5101532;28;20024;-79
2022/03/25 07:30:28;;;;;;;26.33;9.93;;;;;;;19.18;21.96;100153.53;5102284;28;20032;-80
2022/03/25 07:32:54;;;;;;;25.55;10.43;;;;;;;18.50;23.24;100159.00;5101903;28;20043;-79
2022/03/25 07:35:19;;;;;;;25.20;10.35;;;;;;;18.75;22.68;100153.13;5102489;28;20043;-78
2022/03/25 07:37:45;;;;;;;26.02;10.50;;;;;;;18.62;22.46;100158.44;5101670;28;20105;-80
2022/03/25 07:40:12;;;;;;;19.45;10.80;;;;;;;18.08;23.59;100146.72;5101417;28;20090;-81
2022/03/25 07:42:40;;;;;;;25.27;10.52;;;;;;;18.11;22.92;100140.13;5103178;28;20032;-78
2022/03/25 07:45:10;;;;;;;31.42;10.70;;;;;;;18.51;22.72;100141.06;5100839;28;20068;-79
2022/03/25 07:47:43;;;;;;;25.85;10.82;;;;;;;18.81;23.11;100133.50;5102171;28;20040;-78
2022/03/25 07:50:12;;;;;;;31.17;11.50;;;;;;;19.00;22.36;100131.84;5101446;28;20230;-78
2022/03/25 07:52:37;;;;;;;23.67;11.07;;;;;;;18.92;22.43;100138.25;5100701;28;20226;-78
2022/03/25 07:55:03;;;;;;;20.30;10.30;;;;;;;19.00;23.08;100129.16;5102443;28;20036;-78
2022/03/25 07:57:29;;;;;;;23.42;10.63;;;;;;;18.79;23.46;100135.56;5100073;28;20092;-78
2022/03/25 07:59:54;;;;;;;21.38;10.85;;;;;;;18.57;23.35;100124.16;5102789;28;20035;-79
2022/03/25 08:02:20;;;;;;;21.70;10.13;;;;;;;19.02;23.18;100133.28;5101101;28;20109;-79
2022/03/25 08:04:46;;;;;;;22.65;11.65;;;;;;;18.65;22.99;100123.97;5102392;28;20025;-78
2022/03/25 08:07:11;;;;;;;20.17;9.77;;;;;;;18.66;23.38;100109.53;5100906;28;20048;-79
2022/03/25 08:09:37;;;;;;;24.10;9.85;;;;;;;18.66;23.25;100127.50;5101469;28;20048;-78
2022/03/25 08:12:02;;;;;;;22.23;10.20;;;;;;;18.18;24.24;100122.22;5100429;28;20022;-79
2022/03/25 08:14:28;;;;;;;29.27;11.68;;;;;;;18.21;24.18;100123.66;5098986;28;20303;-78
2022/03/25 08:16:53;;;;;;;17.85;9.93;;;;;;;18.16;24.03;100111.69;5102087;28;20069;-79
2022/03/25 08:19:19;;;;;;;29.38;10.88;;;;;;;18.31;23.77;100110.69;5099701;28;20044;-78
2022/03/25 08:21:44;;;;;;;28.63;11.02;;;;;;;18.45;25.15;100113.19;5101294;28;20102;-79
2022/03/25 08:29:38;;;;;;;22.98;10.45;;;;;;;18.89;24.09;100087.69;5102214;28;20035;-78
2022/03/25 08:32:04;;;;;;;21.67;10.30;;;;;;;19.23;22.95;100099.19;5099461;28;20074;-78
2022/03/25 08:34:30;;;;;;;23.10;10.82;;;;;;;19.76;22.60;100089.16;5101043;28;20095;-78
2022/03/25 08:36:55;;;;;;;21.13;10.40;;;;;;;19.85;23.04;100087.91;5101935;28;20222;-78
2022/03/25 08:39:22;;;;;;;20.25;10.38;;;;;;;19.83;22.24;100075.72;5094089;28;20052;-79
2022/03/25 08:41:48;;;;;;;26.10;10.68;;;;;;;19.99;22.53;100089.47;5093968;28;20027;-79
2022/03/25 08:44:14;;;;;;;27.45;10.68;;;;;;;20.50;22.30;100083.19;5091129;28;20295;-79
2022/03/25 08:46:40;;;;;;;19.40;9.98;;;;;;;20.45;22.30;100074.94;5094434;28;20028;-78
2022/03/25 08:49:06;;;;;;;22.55;10.20;;;;;;;20.09;23.13;100083.63;5092776;28;20385;-78
2022/03/25 08:51:32;;;;;;;26.95;10.02;;;;;;;19.44;23.59;100061.34;5093326;28;20027;-78
2022/03/25 08:53:58;;;;;;;19.38;9.65;;;;;;;19.06;24.70;100037.91;5094907;28;20238;-78
2022/03/25 08:56:27;;;;;;;22.45;8.93;;;;;;;19.17;24.20;100055.22;5093550;28;20214;-81
2022/03/25 08:58:54;;;;;;;17.40;9.13;;;;;;;19.18;24.03;100059.56;5094988;28;20093;-78
2022/03/25 09:01:23;;;;;;;21.58;10.50;;;;;;;19.44;22.56;100054.13;5091324;28;20028;-79
2022/03/25 09:03:49;;;;;;;22.52;9.68;;;;;;;19.60;26.72;100055.53;5093722;28;20043;-78
2022/03/25 09:06:14;;;;;;;17.38;9.27;;;;;;;19.41;24.92;100056.41;5093833;28;20039;-78
2022/03/25 09:08:40;;;;;;;19.77;9.57;;;;;;;19.62;25.55;100052.63;5093121;28;20263;-78
2022/03/25 09:11:05;;;;;;;21.23;9.77;;;;;;;19.66;24.17;100056.53;5093424;28;20032;-79
2022/03/25 09:13:31;;;;;;;21.30;9.63;;;;;;;19.54;24.36;100051.00;5091979;28;20395;-80
2022/03/25 09:15:56;;;;;;;20.95;9.75;;;;;;;19.56;24.14;100056.16;5095095;28;20314;-79
2022/03/25 09:18:22;;;;;;;21.08;10.75;;;;;;;19.74;22.14;100048.25;5092139;28;20055;-78
2022/03/25 09:20:48;;;;;;;25.27;10.70;;;;;;;20.11;23.86;100046.59;5094693;28;20028;-79
2022/03/25 09:23:14;;;;;;;22.15;10.27;;;;;;;20.14;22.71;100031.91;5093452;28;20181;-79
2022/03/25 09:25:40;;;;;;;24.85;9.10;;;;;;;20.00;22.30;100039.22;5092887;28;20042;-78
2022/03/25 09:28:05;;;;;;;29.33;10.20;;;;;;;19.89;24.04;100030.00;5093250;28;20035;-78
2022/03/25 09:30:31;;;;;;;19.33;11.02;;;;;;;19.80;22.98;100035.84;5093336;28;20099;-80
2022/03/25 09:32:57;;;;;;;16.92;10.75;;;;;;;19.84;22.47;100051.31;5093105;28;20126;-79
2022/03/25 09:35:23;;;;;;;18.52;10.40;;;;;;;20.28;23.08;100039.66;5093804;28;20055;-80
2022/03/25 09:37:50;;;;;;;21.05;10.32;;;;;;;20.46;22.84;100038.13;5092257;28;20069;-79
2022/03/25 09:40:26;;;;;;;20.90;10.82;;;;;;;20.14;22.93;100031.91;5094119;28;20027;-79
2022/03/25 09:42:55;;;;;;;21.52;9.85;;;;;;;19.97;23.30;100032.44;5094342;28;20230;-78
2022/03/25 09:45:22;;;;;;;25.05;10.20;;;;;;;19.80;23.78;100033.16;5096395;28;20043;-79
2022/03/25 09:47:48;;;;;;;21.25;10.80;;;;;;;19.85;20.61;100030.66;5091019;28;20012;-79
2022/03/25 09:50:21;;;;;;;23.77;11.40;;;;;;;19.72;20.81;100032.34;5095163;28;20055;-79
2022/03/25 09:52:48;;;;;;;33.38;11.32;;;;;;;19.85;21.12;100028.78;5092401;28;20523;-79
2022/03/25 09:55:14;;;;;;;29.40;10.77;;;;;;;20.15;21.14;100028.19;5092224;28;20031;-78
2022/03/25 09:57:41;;;;;;;30.35;11.65;;;;;;;20.00;20.22;100018.56;5093319;28;20034;-79
2022/03/25 10:00:08;;;;;;;26.00;10.20;;;;;;;19.81;21.18;100024.06;5093003;28;20294;-78
2022/03/25 10:02:34;;;;;;;23.13;10.65;;;;;;;19.89;20.84;100003.13;5092395;28;20099;-78
2022/03/25 10:04:59;;;;;;;24.70;9.95;;;;;;;19.87;21.02;100017.81;5094164;28;20260;-79
2022/03/25 10:07:32;;;;;;;23.98;11.00;;;;;;;20.03;20.97;100002.00;5100104;28;20082;-82
2022/03/25 10:10:07;;;;;;;17.63;10.13;;;;;;;20.06;21.43;100016.88;5097843;28;20047;-79
2022/03/25 10:12:32;;;;;;;22.40;10.13;;;;;;;20.00;20.97;100017.72;5103504;28;20103;-79
2022/03/25 10:15:13;;;;;;;22.48;9.32;;;;;;;20.32;20.86;100003.22;5102528;28;20020;-79
2022/03/25 10:17:59;;;;;;;22.95;9.85;;;;;;;20.27;21.13;100013.00;5102976;28;20106;-79
2022/03/25 10:20:28;;;;;;;93.80;13.25;;;;;;;20.22;17.62;100012.81;5100809;28;20047;-79
2022/03/25 10:23:07;;;;;;;43.15;9.77;;;;;;;19.85;16.84;99984.97;5102704;28;20043;-80
2022/03/25 10:25:38;;;;;;;40.58;15.60;;;;;;;19.93;16.52;100000.81;5104427;28;20028;-79
2022/03/25 10:28:16;;;;;;;72.55;11.60;;;;;;;19.85;15.79;99993.84;5103109;28;20056;-78
2022/03/25 10:30:41;;;;;;;27.60;9.55;;;;;;;19.81;15.93;99981.88;5102963;28;20040;-78
2022/03/25 10:33:12;;;;;;;41.22;13.05;;;;;;;19.92;17.18;99997.31;5104266;28;20046;-79
2022/03/25 10:35:53;;;;;;;30.83;9.82;;;;;;;20.16;15.83;99984.94;5100155;28;20061;-79
2022/03/25 10:38:20;;;;;;;40.75;8.52;;;;;;;19.78;14.90;99995.75;5103124;28;20047;-79
2022/03/25 10:40:58;;;;;;;25.17;6.55;;;;;;;19.92;15.61;99991.13;5102553;28;20363;-79
2022/03/25 10:43:24;;;;;;;84.72;14.38;;;;;;;19.92;15.43;99991.13;5102205;28;20028;-79
2022/03/25 10:45:51;;;;;;;40.72;9.15;;;;;;;20.03;15.24;99993.94;5103972;28;20120;-79
2022/03/25 10:48:18;;;;;;;24.33;6.07;;;;;;;19.95;14.49;99999.56;5101702;28;20035;-79
2022/03/25 10:50:59;;;;;;;20.40;6.63;;;;;;;19.86;14.77;100000.03;5103455;28;20096;-78
2022/03/25 10:53:27;;;;;;;49.45;11.27;;;;;;;19.90;14.49;99985.13;5102672;28;20066;-79
2022/03/25 10:56:13;;;;;;;44.40;12.90;;;;;;;19.79;13.88;99999.25;5101664;28;20051;-79
2022/03/25 10:58:49;;;;;;;19.92;8.57;;;;;;;19.89;13.99;99999.63;5101545;28;20051;-78
2022/03/25 11:01:15;;;;;;;20.70;5.28;;;;;;;19.64;14.24;99978.03;5102214;28;20028;-79
2022/03/25 11:03:41;;;;;;;20.20;6.28;;;;;;;19.81;14.24;99987.25;5101271;28;20073;-79
2022/03/25 11:06:08;;;;;;;34.40;7.82;;;;;;;19.64;13.07;99959.22;5102374;28;20039;-79
2022/03/25 11:08:35;;;;;;;23.35;6.10;;;;;;;19.72;13.23;99989.34;5101828;28;20032;-78
2022/03/25 11:11:01;;;;;;;35.25;5.78;;;;;;;19.62;13.15;99980.09;5103688;28;20043;-78
2022/03/25 11:13:27;;;;;;;22.63;5.43;;;;;;;19.74;12.94;99995.31;5102236;28;20342;-78
2022/03/25 11:15:55;;;;;;;13.77;4.95;;;;;;;19.92;13.22;99981.19;5101739;28;20059;-77
2022/03/25 11:18:21;;;;;;;15.55;6.15;;;;;;;19.94;13.03;99979.09;5100486;28;20040;-78